Snake River, Canada
Current Conditions -  °F | °C
As of 8:00 AM on Thursday 27 Nov 2014 (Local Time) from CYYE Reporting Station
Light Snow Light Snow  
Wind Chill: -2°   Ceiling: 3000
Heat Index: -2°   Visibility: 15mi
Dew Point: -6°   Wind: 3mph
Humidity: 85%   Direction: 330°NNW
Pressure: 30.52"   Gusts: NA
Location:  59.04°N, 122.45°W
Report Text: CYYE 271500Z 33003KT 15SM -SN OVC030 M19/M21 A3052 RMK SC8 SLP378
Loading
Personal Weather Stations






























Interactive Weather Map New forecast layout! Learn more

10-Day Weather Forecast

Advertisements
Track Severe Weather on mobile